createdAt,value
2022-12-18T06:09:10.023Z,43.40
2022-12-18T06:54:13.064Z,58.00
2022-12-18T09:03:27.506Z,20.30
2022-12-18T09:29:04.639Z,24.00
2022-12-18T09:31:35.313Z,24.50
2022-12-18T09:34:05.686Z,23.20
2022-12-18T09:36:36.541Z,19.80
2022-12-18T09:39:08.606Z,22.80
2022-12-18T09:41:55.014Z,22.00
2022-12-18T09:44:45.799Z,21.70
2022-12-18T09:47:24.991Z,22.10
2022-12-18T09:50:05.800Z,24.40
2022-12-18T09:52:43.210Z,20.30
2022-12-18T09:55:33.603Z,20.50
2022-12-18T09:58:39.477Z,22.90
2022-12-18T10:01:16.339Z,20.40
2022-12-18T10:03:49.711Z,18.90
2022-12-18T10:06:50.640Z,20.00
2022-12-18T10:09:44.492Z,19.10
2022-12-18T10:12:37.939Z,18.00
2022-12-18T10:15:29.809Z,17.10
2022-12-18T10:18:20.322Z,17.40
2022-12-18T10:21:01.580Z,17.80
2022-12-18T10:24:04.929Z,17.60
2022-12-18T10:26:35.749Z,21.60
2022-12-18T10:29:16.191Z,20.70
2022-12-18T10:31:46.871Z,20.10
2022-12-18T10:34:17.092Z,19.10
2022-12-18T10:36:49.041Z,21.10
2022-12-18T10:39:19.757Z,17.40
2022-12-18T10:41:49.178Z,19.30
2022-12-18T10:44:24.750Z,21.30
2022-12-18T10:47:11.696Z,19.00
2022-12-18T10:49:52.125Z,19.90
2022-12-18T10:52:25.272Z,18.80
2022-12-18T10:55:05.066Z,18.50
2022-12-18T10:57:42.919Z,19.80
2022-12-18T11:00:29.610Z,19.30
2022-12-18T11:03:00.048Z,18.00
2022-12-18T11:05:33.431Z,19.70
2022-12-18T11:08:05.097Z,19.90
2022-12-18T11:10:39.198Z,19.80
2022-12-18T11:13:22.550Z,21.50
2022-12-18T11:15:54.123Z,20.90
2022-12-18T11:18:37.339Z,18.00
2022-12-18T11:21:14.874Z,19.20
2022-12-18T11:23:53.009Z,18.20
2022-12-18T11:29:09.268Z,21.50
2022-12-18T11:31:39.157Z,22.90
2022-12-18T11:34:30.891Z,17.60
2022-12-18T11:37:04.585Z,20.20
2022-12-18T11:39:51.774Z,17.40
2022-12-18T11:42:39.974Z,18.60
2022-12-18T11:45:25.696Z,16.70
2022-12-18T11:48:17.435Z,25.90
2022-12-18T11:50:58.141Z,36.10
2022-12-18T11:53:29.147Z,24.10
2022-12-18T11:56:14.158Z,26.90
2022-12-18T11:59:27.183Z,30.20
2022-12-18T12:02:31.103Z,21.60
2022-12-18T12:05:26.326Z,19.00
2022-12-18T12:08:21.778Z,21.60
2022-12-18T12:11:21.271Z,22.50
2022-12-18T12:14:19.276Z,22.40
2022-12-18T12:17:26.991Z,22.50
2022-12-18T12:20:51.755Z,23.70
2022-12-18T12:23:42.551Z,20.60
2022-12-18T12:26:32.199Z,21.30
2022-12-18T12:29:10.762Z,23.80
2022-12-18T12:32:00.332Z,18.40
2022-12-18T12:34:47.870Z,19.80
2022-12-18T12:37:55.373Z,18.30
2022-12-18T12:43:29.220Z,20.50
2022-12-18T12:46:11.211Z,19.40
2022-12-18T12:48:58.138Z,19.40
2022-12-18T12:51:38.418Z,18.80
2022-12-18T12:54:18.923Z,16.90
2022-12-18T12:57:05.436Z,18.50
2022-12-18T12:59:51.328Z,20.60
2022-12-18T13:02:54.105Z,21.90
2022-12-18T13:05:55.882Z,18.80
2022-12-18T13:08:31.632Z,19.00
2022-12-18T13:11:45.832Z,20.10
2022-12-18T13:14:32.423Z,18.30
2022-12-18T13:17:26.356Z,18.40
2022-12-18T13:20:13.984Z,19.80
2022-12-18T13:22:50.501Z,22.60
2022-12-18T13:25:33.721Z,19.50
2022-12-18T13:28:07.333Z,21.00
2022-12-18T13:30:37.928Z,19.40
2022-12-18T13:33:17.311Z,28.10
2022-12-18T13:35:50.721Z,29.30
2022-12-18T13:38:38.387Z,30.90
2022-12-18T13:41:17.734Z,21.10
2022-12-18T13:43:50.678Z,20.80
2022-12-18T13:46:51.484Z,30.90
2022-12-18T13:49:42.663Z,35.30
2022-12-18T13:52:27.774Z,34.30
2022-12-18T13:55:05.113Z,47.70
2022-12-18T13:57:39.759Z,31.30
2022-12-18T14:00:35.547Z,21.10
2022-12-18T14:03:27.702Z,25.10
2022-12-18T14:06:23.669Z,33.50
2022-12-18T14:08:54.823Z,35.60
2022-12-18T14:11:26.717Z,35.80
2022-12-18T14:13:57.841Z,40.50
2022-12-18T14:16:30.024Z,41.40
2022-12-18T14:19:02.708Z,38.30
2022-12-18T14:21:39.389Z,36.60
2022-12-18T14:24:22.392Z,40.40
2022-12-18T14:26:53.073Z,43.80
2022-12-18T14:29:30.757Z,39.90
2022-12-18T14:32:19.452Z,27.80
2022-12-18T14:34:52.034Z,31.30
2022-12-18T14:37:27.384Z,30.60
2022-12-18T14:40:07.162Z,32.90
2022-12-18T14:42:39.616Z,34.60
2022-12-18T14:45:47.470Z,31.80
2022-12-18T14:48:23.346Z,35.70
2022-12-18T14:51:17.632Z,35.50
2022-12-18T14:53:57.065Z,59.70
2022-12-18T14:56:30.437Z,68.20
2022-12-18T14:59:06.360Z,116.50
2022-12-18T15:01:47.778Z,102.20
2022-12-18T15:04:31.105Z,40.40
2022-12-18T15:07:24.781Z,51.30
2022-12-18T15:10:09.199Z,56.80
2022-12-18T15:12:50.675Z,69.20
2022-12-18T15:15:40.838Z,63.40
2022-12-18T15:18:13.487Z,63.40
2022-12-18T15:21:01.500Z,62.50
2022-12-18T15:23:47.085Z,84.60
2022-12-18T15:26:18.450Z,83.30
2022-12-18T15:28:53.987Z,58.50
2022-12-18T15:31:37.011Z,77.60
2022-12-18T15:34:09.355Z,90.40
2022-12-18T15:36:39.873Z,55.60
2022-12-18T15:39:13.482Z,45.10
2022-12-18T15:42:04.351Z,42.80
2022-12-18T15:44:36.084Z,45.90
2022-12-18T15:47:12.457Z,61.30
2022-12-18T15:49:42.344Z,81.90
2022-12-18T15:52:14.970Z,72.50
2022-12-18T15:55:04.976Z,79.80
2022-12-18T15:57:35.083Z,58.60
2022-12-18T16:00:06.060Z,57.10
2022-12-18T16:02:36.285Z,65.90
2022-12-18T16:05:18.469Z,54.80
2022-12-18T16:07:48.095Z,53.50
2022-12-18T16:10:18.991Z,58.40
2022-12-18T16:12:49.117Z,59.70
2022-12-18T16:15:24.233Z,57.50
2022-12-18T16:17:54.523Z,56.50
2022-12-18T16:20:24.936Z,53.80
2022-12-18T16:22:54.871Z,48.60
2022-12-18T16:25:29.374Z,47.80
2022-12-18T16:27:59.574Z,50.10
2022-12-18T16:30:33.066Z,52.50
2022-12-18T16:33:09.530Z,49.70
2022-12-18T16:35:39.747Z,43.40
2022-12-18T16:38:10.996Z,46.50
2022-12-18T16:41:01.193Z,43.70
2022-12-18T16:43:32.074Z,44.70
2022-12-18T16:46:02.676Z,42.10
2022-12-18T16:48:35.724Z,48.00
2022-12-18T16:51:06.558Z,45.80
2022-12-18T16:53:36.662Z,46.40
2022-12-18T16:56:06.971Z,46.40
2022-12-18T16:58:37.222Z,49.30
2022-12-18T17:01:13.487Z,48.50
2022-12-18T17:03:44.674Z,46.00
2022-12-18T17:06:16.899Z,43.10
2022-12-18T17:08:47.876Z,44.10
2022-12-18T17:11:17.780Z,47.70
2022-12-18T17:13:48.009Z,50.10
2022-12-18T17:16:18.391Z,46.70
2022-12-18T17:18:49.272Z,44.00
2022-12-18T17:21:20.102Z,43.30
2022-12-18T17:23:50.576Z,42.90
2022-12-18T17:26:21.194Z,43.80
2022-12-18T17:28:51.548Z,47.50
2022-12-18T17:31:23.166Z,41.10
2022-12-18T17:33:54.196Z,44.40
2022-12-18T17:36:25.226Z,39.70
2022-12-18T17:38:57.773Z,43.20
2022-12-18T17:41:27.551Z,41.50
2022-12-18T17:44:02.059Z,62.20
2022-12-18T17:46:35.395Z,39.50
2022-12-18T17:49:05.376Z,31.90
2022-12-18T17:51:35.311Z,47.40
2022-12-18T17:54:05.914Z,52.30
2022-12-18T17:56:36.079Z,68.80
2022-12-18T17:59:07.420Z,47.10
2022-12-18T18:01:43.724Z,53.20
2022-12-18T18:04:17.035Z,49.40
2022-12-18T18:06:47.432Z,49.30
2022-12-18T18:09:17.783Z,48.00
2022-12-18T18:12:07.739Z,40.10
2022-12-18T18:14:37.246Z,37.20
2022-12-18T18:17:07.816Z,38.50
2022-12-18T18:19:37.881Z,33.10
2022-12-18T18:22:09.395Z,35.60
2022-12-18T18:24:39.327Z,34.70
2022-12-18T18:27:09.219Z,30.80
2022-12-18T18:29:40.524Z,36.70
2022-12-18T18:32:10.659Z,61.10
2022-12-18T18:34:43.472Z,110.00
2022-12-18T18:37:13.489Z,46.10
2022-12-18T18:39:43.459Z,49.90
2022-12-18T18:42:13.349Z,65.80
2022-12-18T18:44:48.577Z,44.50
2022-12-18T18:47:19.616Z,38.80
2022-12-18T18:49:49.959Z,35.80
2022-12-18T18:52:20.172Z,39.40
2022-12-18T18:55:11.808Z,42.40
2022-12-18T18:57:42.535Z,35.40
2022-12-18T19:00:13.413Z,36.30
2022-12-18T19:02:42.388Z,36.20
2022-12-18T19:05:12.494Z,35.00
2022-12-18T19:07:42.750Z,33.00
2022-12-18T19:10:11.556Z,37.60
2022-12-18T19:13:12.637Z,57.00
2022-12-18T19:15:46.350Z,100.60
2022-12-18T19:18:17.103Z,66.60
2022-12-18T19:20:56.022Z,67.90
2022-12-18T19:23:26.168Z,37.80
2022-12-18T19:26:26.625Z,34.10
2022-12-18T19:28:47.036Z,31.50
2022-12-18T19:31:24.178Z,30.70
2022-12-18T19:33:57.000Z,29.80
2022-12-18T19:36:29.116Z,28.90
2022-12-18T19:39:01.308Z,28.70
2022-12-18T19:41:32.951Z,30.60
2022-12-18T19:44:06.018Z,34.30
2022-12-18T19:46:42.010Z,34.40
2022-12-18T19:49:17.685Z,33.80
2022-12-18T19:51:50.371Z,39.70
2022-12-18T19:54:20.913Z,31.70
2022-12-18T19:56:53.263Z,48.90
2022-12-18T19:59:23.756Z,66.40
2022-12-18T20:01:54.689Z,88.90
2022-12-18T20:04:24.925Z,97.60
2022-12-18T20:06:55.319Z,70.50
2022-12-18T20:09:25.628Z,55.90
2022-12-18T20:11:56.351Z,56.90
2022-12-18T20:14:26.395Z,48.20
2022-12-18T20:16:56.381Z,58.60
2022-12-18T20:19:27.733Z,60.40
2022-12-18T20:21:57.867Z,55.80
2022-12-18T20:24:28.281Z,45.30
2022-12-18T20:26:57.677Z,40.20
2022-12-18T20:29:27.826Z,42.00
2022-12-18T20:31:57.766Z,58.20
2022-12-18T20:34:28.037Z,42.10
2022-12-18T20:36:58.344Z,36.00
2022-12-18T20:39:30.458Z,35.70
2022-12-18T20:42:01.632Z,47.20
2022-12-18T20:44:31.480Z,51.60
2022-12-18T20:47:07.461Z,42.20
2022-12-18T20:49:39.605Z,29.60
2022-12-18T20:52:15.441Z,26.00
2022-12-18T20:54:46.073Z,25.00
2022-12-18T20:57:16.228Z,27.20
2022-12-18T20:59:48.336Z,42.30
2022-12-18T21:02:18.668Z,28.20
2022-12-18T21:04:49.091Z,26.50
2022-12-18T21:07:19.131Z,24.20
2022-12-18T21:09:47.867Z,26.60
2022-12-18T21:12:48.151Z,33.50
2022-12-18T21:15:30.854Z,34.50
2022-12-18T21:18:01.112Z,36.20
2022-12-18T21:20:31.249Z,34.60
2022-12-18T21:23:15.840Z,27.70
2022-12-18T21:25:49.440Z,37.80
2022-12-18T21:28:23.731Z,40.30
2022-12-18T21:30:53.960Z,38.20
2022-12-18T21:33:23.943Z,48.00
2022-12-18T21:35:54.250Z,58.40
2022-12-18T21:38:24.479Z,41.80
2022-12-18T21:40:54.666Z,35.30
2022-12-18T21:43:43.386Z,28.20
2022-12-18T21:46:13.417Z,34.10
2022-12-18T21:48:44.293Z,30.00
2022-12-18T21:51:14.428Z,36.80
2022-12-18T21:53:44.371Z,43.30
2022-12-18T21:56:16.316Z,45.70
2022-12-18T21:58:56.840Z,49.60
2022-12-18T22:01:32.700Z,64.30
2022-12-18T22:04:08.718Z,39.40
2022-12-18T22:06:39.501Z,38.30
2022-12-18T22:09:10.969Z,42.10
2022-12-18T22:11:40.388Z,39.70
2022-12-18T22:14:10.966Z,41.40
2022-12-18T22:16:41.260Z,36.60
2022-12-18T22:19:12.515Z,45.50
2022-12-18T22:21:47.668Z,48.60
2022-12-18T22:24:23.677Z,46.50
2022-12-18T22:27:01.862Z,44.90
2022-12-18T22:29:52.990Z,43.50
2022-12-18T22:32:31.260Z,39.70
2022-12-18T22:35:09.165Z,39.70
2022-12-18T22:37:39.807Z,42.80
2022-12-18T22:40:25.789Z,44.30
2022-12-18T22:42:56.611Z,47.60
2022-12-18T22:45:28.373Z,53.80
2022-12-18T22:47:58.512Z,40.60
2022-12-18T22:50:28.401Z,26.40
2022-12-18T22:52:58.535Z,26.60
2022-12-18T22:55:28.671Z,25.30
2022-12-18T22:57:57.345Z,28.90
2022-12-18T23:00:26.277Z,37.20
2022-12-18T23:03:00.704Z,55.60
2022-12-18T23:05:33.048Z,58.10
2022-12-18T23:08:02.296Z,47.50
2022-12-18T23:10:31.788Z,52.00
2022-12-18T23:13:02.032Z,51.80
2022-12-18T23:15:32.141Z,46.90
2022-12-18T23:18:02.338Z,52.60
2022-12-18T23:20:32.486Z,46.50
2022-12-18T23:23:02.766Z,67.10
2022-12-18T23:25:33.293Z,69.80
2022-12-18T23:28:04.349Z,57.30
2022-12-18T23:30:34.536Z,49.50
2022-12-18T23:33:04.499Z,12.40
2022-12-18T23:35:34.799Z,38.60
2022-12-18T23:38:04.886Z,36.10
2022-12-18T23:40:34.652Z,33.40
2022-12-18T23:43:04.571Z,30.50
2022-12-18T23:45:38.426Z,30.50
2022-12-18T23:48:07.953Z,29.30
2022-12-18T23:50:36.679Z,31.90
2022-12-18T23:53:07.232Z,49.20
2022-12-18T23:55:44.497Z,37.90
2022-12-18T23:58:19.949Z,27.60
